sensor_id;sensor_type;location;lat;lon;timestamp;P1;durP1;ratioP1;P2;durP2;ratioP2
12675;SDS011;63820;65.654;21.944;2023-05-18T00:00:25;1.30;;;0.20;;
12675;SDS011;63820;65.654;21.944;2023-05-18T00:03:09;0.20;;;0.20;;
12675;SDS011;63820;65.654;21.944;2023-05-18T00:05:53;0.10;;;0.10;;
12675;SDS011;63820;65.654;21.944;2023-05-18T00:08:40;0.10;;;0.10;;
12675;SDS011;63820;65.654;21.944;2023-05-18T00:11:25;0.83;;;0.10;;
12675;SDS011;63820;65.654;21.944;2023-05-18T00:14:09;0.10;;;0.10;;
12675;SDS011;63820;65.654;21.944;2023-05-18T00:16:54;0.10;;;0.10;;
12675;SDS011;63820;65.654;21.944;2023-05-18T00:19:38;0.10;;;0.10;;
12675;SDS011;63820;65.654;21.944;2023-05-18T00:22:23;0.43;;;0.10;;
12675;SDS011;63820;65.654;21.944;2023-05-18T00:25:08;0.40;;;0.10;;
12675;SDS011;63820;65.654;21.944;2023-05-18T00:27:53;0.10;;;0.10;;
12675;SDS011;63820;65.654;21.944;2023-05-18T00:30:37;0.10;;;0.10;;
12675;SDS011;63820;65.654;21.944;2023-05-18T00:33:21;0.10;;;0.10;;
12675;SDS011;63820;65.654;21.944;2023-05-18T00:36:06;0.10;;;0.10;;
12675;SDS011;63820;65.654;21.944;2023-05-18T00:38:51;0.10;;;0.10;;
12675;SDS011;63820;65.654;21.944;2023-05-18T00:41:35;0.00;;;0.00;;
12675;SDS011;63820;65.654;21.944;2023-05-18T00:44:19;0.10;;;0.10;;
12675;SDS011;63820;65.654;21.944;2023-05-18T00:47:03;0.10;;;0.10;;
12675;SDS011;63820;65.654;21.944;2023-05-18T00:49:48;0.17;;;0.17;;
12675;SDS011;63820;65.654;21.944;2023-05-18T00:52:32;0.10;;;0.10;;
12675;SDS011;63820;65.654;21.944;2023-05-18T00:55:17;0.10;;;0.10;;
12675;SDS011;63820;65.654;21.944;2023-05-18T00:58:02;0.10;;;0.10;;
12675;SDS011;63820;65.654;21.944;2023-05-18T01:00:48;0.00;;;0.00;;
12675;SDS011;63820;65.654;21.944;2023-05-18T01:03:32;0.10;;;0.10;;
12675;SDS011;63820;65.654;21.944;2023-05-18T01:06:16;0.10;;;0.10;;
12675;SDS011;63820;65.654;21.944;2023-05-18T01:09:02;0.10;;;0.10;;
12675;SDS011;63820;65.654;21.944;2023-05-18T01:20:28;0.10;;;0.10;;
12675;SDS011;63820;65.654;21.944;2023-05-18T01:24:08;0.23;;;0.13;;
12675;SDS011;63820;65.654;21.944;2023-05-18T01:26:46;0.10;;;0.10;;
12675;SDS011;63820;65.654;21.944;2023-05-18T01:29:33;0.10;;;0.10;;
12675;SDS011;63820;65.654;21.944;2023-05-18T01:32:17;0.10;;;0.10;;
12675;SDS011;63820;65.654;21.944;2023-05-18T01:35:05;0.10;;;0.10;;
12675;SDS011;63820;65.654;21.944;2023-05-18T01:37:50;0.10;;;0.10;;
12675;SDS011;63820;65.654;21.944;2023-05-18T01:40:36;0.17;;;0.10;;
12675;SDS011;63820;65.654;21.944;2023-05-18T01:43:51;0.10;;;0.10;;
12675;SDS011;63820;65.654;21.944;2023-05-18T01:49:47;0.20;;;0.20;;
12675;SDS011;63820;65.654;21.944;2023-05-18T01:52:53;0.40;;;0.10;;
12675;SDS011;63820;65.654;21.944;2023-05-18T01:55:43;0.10;;;0.10;;
12675;SDS011;63820;65.654;21.944;2023-05-18T01:58:30;0.10;;;0.10;;
12675;SDS011;63820;65.654;21.944;2023-05-18T02:01:14;0.07;;;0.07;;
12675;SDS011;63820;65.654;21.944;2023-05-18T02:04:06;0.10;;;0.10;;
12675;SDS011;63820;65.654;21.944;2023-05-18T02:06:51;0.87;;;0.20;;
12675;SDS011;63820;65.654;21.944;2023-05-18T02:09:37;0.00;;;0.00;;
12675;SDS011;63820;65.654;21.944;2023-05-18T02:12:20;0.07;;;0.07;;
12675;SDS011;63820;65.654;21.944;2023-05-18T02:15:05;0.10;;;0.10;;
12675;SDS011;63820;65.654;21.944;2023-05-18T02:17:50;0.27;;;0.10;;
12675;SDS011;63820;65.654;21.944;2023-05-18T02:20:34;0.10;;;0.10;;
12675;SDS011;63820;65.654;21.944;2023-05-18T02:23:20;0.10;;;0.10;;
12675;SDS011;63820;65.654;21.944;2023-05-18T02:26:04;0.43;;;0.10;;
12675;SDS011;63820;65.654;21.944;2023-05-18T02:28:49;0.17;;;0.17;;
12675;SDS011;63820;65.654;21.944;2023-05-18T02:31:32;0.10;;;0.10;;
12675;SDS011;63820;65.654;21.944;2023-05-18T02:34:18;0.10;;;0.10;;
12675;SDS011;63820;65.654;21.944;2023-05-18T02:37:04;0.10;;;0.10;;
12675;SDS011;63820;65.654;21.944;2023-05-18T02:39:48;0.53;;;0.10;;
12675;SDS011;63820;65.654;21.944;2023-05-18T02:42:32;0.10;;;0.10;;
12675;SDS011;63820;65.654;21.944;2023-05-18T02:45:16;0.00;;;0.00;;
12675;SDS011;63820;65.654;21.944;2023-05-18T02:48:01;0.10;;;0.10;;
12675;SDS011;63820;65.654;21.944;2023-05-18T02:50:47;0.10;;;0.00;;
12675;SDS011;63820;65.654;21.944;2023-05-18T02:53:31;0.10;;;0.10;;
12675;SDS011;63820;65.654;21.944;2023-05-18T02:56:15;0.10;;;0.10;;
12675;SDS011;63820;65.654;21.944;2023-05-18T02:59:03;0.10;;;0.10;;
12675;SDS011;63820;65.654;21.944;2023-05-18T03:01:47;0.10;;;0.10;;
12675;SDS011;63820;65.654;21.944;2023-05-18T03:04:30;0.10;;;0.10;;
12675;SDS011;63820;65.654;21.944;2023-05-18T03:07:15;0.00;;;0.00;;
12675;SDS011;63820;65.654;21.944;2023-05-18T03:10:01;0.10;;;0.10;;
12675;SDS011;63820;65.654;21.944;2023-05-18T03:12:46;0.00;;;0.00;;
12675;SDS011;63820;65.654;21.944;2023-05-18T03:15:31;0.10;;;0.10;;
12675;SDS011;63820;65.654;21.944;2023-05-18T03:18:15;0.10;;;0.10;;
12675;SDS011;63820;65.654;21.944;2023-05-18T03:21:00;0.10;;;0.10;;
12675;SDS011;63820;65.654;21.944;2023-05-18T03:23:44;0.47;;;0.20;;
12675;SDS011;63820;65.654;21.944;2023-05-18T03:26:29;0.10;;;0.00;;
12675;SDS011;63820;65.654;21.944;2023-05-18T03:29:13;0.00;;;0.00;;
12675;SDS011;63820;65.654;21.944;2023-05-18T03:31:58;0.10;;;0.10;;
12675;SDS011;63820;65.654;21.944;2023-05-18T03:34:42;0.73;;;0.10;;
12675;SDS011;63820;65.654;21.944;2023-05-18T03:37:27;0.10;;;0.10;;
12675;SDS011;63820;65.654;21.944;2023-05-18T03:40:12;0.13;;;0.10;;
12675;SDS011;63820;65.654;21.944;2023-05-18T03:42:57;0.20;;;0.10;;
12675;SDS011;63820;65.654;21.944;2023-05-18T03:45:41;0.20;;;0.20;;
12675;SDS011;63820;65.654;21.944;2023-05-18T03:48:25;0.00;;;0.00;;
12675;SDS011;63820;65.654;21.944;2023-05-18T03:51:10;0.10;;;0.10;;
12675;SDS011;63820;65.654;21.944;2023-05-18T03:53:55;0.00;;;0.00;;
12675;SDS011;63820;65.654;21.944;2023-05-18T03:56:39;0.10;;;0.10;;
12675;SDS011;63820;65.654;21.944;2023-05-18T03:59:23;0.00;;;0.00;;
12675;SDS011;63820;65.654;21.944;2023-05-18T04:02:08;0.10;;;0.10;;
12675;SDS011;63820;65.654;21.944;2023-05-18T04:04:53;0.10;;;0.10;;
12675;SDS011;63820;65.654;21.944;2023-05-18T04:07:37;0.10;;;0.10;;
12675;SDS011;63820;65.654;21.944;2023-05-18T04:10:26;0.10;;;0.10;;
12675;SDS011;63820;65.654;21.944;2023-05-18T04:13:10;0.10;;;0.10;;
12675;SDS011;63820;65.654;21.944;2023-05-18T04:15:54;0.10;;;0.10;;
12675;SDS011;63820;65.654;21.944;2023-05-18T04:18:40;0.10;;;0.10;;
12675;SDS011;63820;65.654;21.944;2023-05-18T04:21:25;0.20;;;0.20;;
12675;SDS011;63820;65.654;21.944;2023-05-18T04:24:09;0.20;;;0.20;;
12675;SDS011;63820;65.654;21.944;2023-05-18T04:26:57;0.10;;;0.10;;
12675;SDS011;63820;65.654;21.944;2023-05-18T04:29:44;1.20;;;0.20;;
12675;SDS011;63820;65.654;21.944;2023-05-18T04:32:29;0.10;;;0.10;;
12675;SDS011;63820;65.654;21.944;2023-05-18T04:35:18;0.10;;;0.10;;
12675;SDS011;63820;65.654;21.944;2023-05-18T04:38:02;0.13;;;0.13;;
12675;SDS011;63820;65.654;21.944;2023-05-18T04:40:48;0.10;;;0.10;;
12675;SDS011;63820;65.654;21.944;2023-05-18T04:43:33;0.20;;;0.20;;
12675;SDS011;63820;65.654;21.944;2023-05-18T04:46:19;0.43;;;0.17;;
12675;SDS011;63820;65.654;21.944;2023-05-18T04:49:06;0.20;;;0.20;;
12675;SDS011;63820;65.654;21.944;2023-05-18T04:51:51;0.10;;;0.10;;
12675;SDS011;63820;65.654;21.944;2023-05-18T04:54:39;0.17;;;0.17;;
12675;SDS011;63820;65.654;21.944;2023-05-18T04:57:24;0.10;;;0.10;;
12675;SDS011;63820;65.654;21.944;2023-05-18T05:00:09;0.10;;;0.10;;
12675;SDS011;63820;65.654;21.944;2023-05-18T05:02:55;0.30;;;0.30;;
12675;SDS011;63820;65.654;21.944;2023-05-18T05:05:41;0.20;;;0.20;;
12675;SDS011;63820;65.654;21.944;2023-05-18T05:08:25;0.10;;;0.10;;
12675;SDS011;63820;65.654;21.944;2023-05-18T05:11:09;0.83;;;0.20;;
12675;SDS011;63820;65.654;21.944;2023-05-18T05:13:53;0.20;;;0.20;;
12675;SDS011;63820;65.654;21.944;2023-05-18T05:16:37;0.20;;;0.20;;
12675;SDS011;63820;65.654;21.944;2023-05-18T05:19:22;0.30;;;0.30;;
12675;SDS011;63820;65.654;21.944;2023-05-18T05:22:06;0.20;;;0.10;;
12675;SDS011;63820;65.654;21.944;2023-05-18T05:24:50;0.10;;;0.10;;
12675;SDS011;63820;65.654;21.944;2023-05-18T05:27:34;0.13;;;0.13;;
12675;SDS011;63820;65.654;21.944;2023-05-18T05:30:18;0.23;;;0.20;;
12675;SDS011;63820;65.654;21.944;2023-05-18T05:33:03;0.20;;;0.20;;
12675;SDS011;63820;65.654;21.944;2023-05-18T05:35:47;0.20;;;0.20;;
12675;SDS011;63820;65.654;21.944;2023-05-18T05:38:31;0.27;;;0.10;;
12675;SDS011;63820;65.654;21.944;2023-05-18T05:41:15;0.30;;;0.20;;
12675;SDS011;63820;65.654;21.944;2023-05-18T05:43:59;0.20;;;0.20;;
12675;SDS011;63820;65.654;21.944;2023-05-18T05:46:44;0.23;;;0.23;;
12675;SDS011;63820;65.654;21.944;2023-05-18T05:49:28;0.93;;;0.20;;
12675;SDS011;63820;65.654;21.944;2023-05-18T05:52:12;0.20;;;0.20;;
12675;SDS011;63820;65.654;21.944;2023-05-18T05:54:57;0.20;;;0.20;;
12675;SDS011;63820;65.654;21.944;2023-05-18T05:57:41;0.20;;;0.20;;
12675;SDS011;63820;65.654;21.944;2023-05-18T06:00:25;0.20;;;0.20;;
12675;SDS011;63820;65.654;21.944;2023-05-18T06:03:11;0.40;;;0.40;;
12675;SDS011;63820;65.654;21.944;2023-05-18T06:05:56;0.93;;;0.20;;
12675;SDS011;63820;65.654;21.944;2023-05-18T06:08:40;0.30;;;0.30;;
12675;SDS011;63820;65.654;21.944;2023-05-18T06:11:25;0.20;;;0.20;;
12675;SDS011;63820;65.654;21.944;2023-05-18T06:14:09;0.20;;;0.20;;
12675;SDS011;63820;65.654;21.944;2023-05-18T06:16:54;0.40;;;0.20;;
12675;SDS011;63820;65.654;21.944;2023-05-18T06:19:38;0.30;;;0.30;;
12675;SDS011;63820;65.654;21.944;2023-05-18T06:22:22;0.20;;;0.20;;
12675;SDS011;63820;65.654;21.944;2023-05-18T06:25:07;0.20;;;0.20;;
12675;SDS011;63820;65.654;21.944;2023-05-18T06:27:53;0.73;;;0.20;;
12675;SDS011;63820;65.654;21.944;2023-05-18T06:30:37;0.20;;;0.20;;
12675;SDS011;63820;65.654;21.944;2023-05-18T06:33:21;0.30;;;0.20;;
12675;SDS011;63820;65.654;21.944;2023-05-18T06:36:06;0.50;;;0.23;;
12675;SDS011;63820;65.654;21.944;2023-05-18T06:38:50;1.30;;;0.20;;
12675;SDS011;63820;65.654;21.944;2023-05-18T06:41:35;0.20;;;0.20;;
12675;SDS011;63820;65.654;21.944;2023-05-18T06:44:19;0.10;;;0.10;;
12675;SDS011;63820;65.654;21.944;2023-05-18T06:47:03;0.17;;;0.17;;
12675;SDS011;63820;65.654;21.944;2023-05-18T06:49:47;0.63;;;0.20;;
12675;SDS011;63820;65.654;21.944;2023-05-18T06:52:31;0.20;;;0.20;;
12675;SDS011;63820;65.654;21.944;2023-05-18T06:55:15;0.20;;;0.20;;
12675;SDS011;63820;65.654;21.944;2023-05-18T06:58:00;0.87;;;0.20;;
12675;SDS011;63820;65.654;21.944;2023-05-18T07:00:45;0.17;;;0.17;;
12675;SDS011;63820;65.654;21.944;2023-05-18T07:03:31;0.60;;;0.20;;
12675;SDS011;63820;65.654;21.944;2023-05-18T07:06:15;0.73;;;0.23;;
12675;SDS011;63820;65.654;21.944;2023-05-18T07:09:00;0.20;;;0.20;;
12675;SDS011;63820;65.654;21.944;2023-05-18T07:11:46;0.20;;;0.20;;
12675;SDS011;63820;65.654;21.944;2023-05-18T07:14:29;0.20;;;0.20;;
12675;SDS011;63820;65.654;21.944;2023-05-18T07:17:13;0.40;;;0.20;;
12675;SDS011;63820;65.654;21.944;2023-05-18T07:19:58;0.40;;;0.30;;
12675;SDS011;63820;65.654;21.944;2023-05-18T07:22:42;2.37;;;0.20;;
12675;SDS011;63820;65.654;21.944;2023-05-18T07:25:26;1.03;;;0.20;;
12675;SDS011;63820;65.654;21.944;2023-05-18T07:28:10;0.23;;;0.20;;
12675;SDS011;63820;65.654;21.944;2023-05-18T07:30:53;0.80;;;0.23;;
12675;SDS011;63820;65.654;21.944;2023-05-18T07:33:37;1.27;;;0.20;;
12675;SDS011;63820;65.654;21.944;2023-05-18T07:36:21;0.47;;;0.30;;
12675;SDS011;63820;65.654;21.944;2023-05-18T07:39:06;0.20;;;0.20;;
12675;SDS011;63820;65.654;21.944;2023-05-18T07:41:51;1.40;;;0.20;;
12675;SDS011;63820;65.654;21.944;2023-05-18T07:44:35;0.50;;;0.30;;
12675;SDS011;63820;65.654;21.944;2023-05-18T07:47:19;0.67;;;0.10;;
12675;SDS011;63820;65.654;21.944;2023-05-18T07:50:04;0.93;;;0.20;;
12675;SDS011;63820;65.654;21.944;2023-05-18T07:52:49;0.20;;;0.20;;
12675;SDS011;63820;65.654;21.944;2023-05-18T07:55:33;0.20;;;0.20;;
12675;SDS011;63820;65.654;21.944;2023-05-18T07:58:16;0.30;;;0.20;;
12675;SDS011;63820;65.654;21.944;2023-05-18T08:01:00;0.20;;;0.20;;
12675;SDS011;63820;65.654;21.944;2023-05-18T08:03:45;0.57;;;0.20;;
12675;SDS011;63820;65.654;21.944;2023-05-18T08:06:29;1.10;;;0.20;;
12675;SDS011;63820;65.654;21.944;2023-05-18T08:09:14;0.37;;;0.30;;
12675;SDS011;63820;65.654;21.944;2023-05-18T08:11:59;0.20;;;0.20;;
12675;SDS011;63820;65.654;21.944;2023-05-18T08:14:43;0.23;;;0.23;;
12675;SDS011;63820;65.654;21.944;2023-05-18T08:17:27;1.80;;;0.27;;
12675;SDS011;63820;65.654;21.944;2023-05-18T08:20:11;0.70;;;0.30;;
12675;SDS011;63820;65.654;21.944;2023-05-18T08:22:55;2.80;;;0.30;;
12675;SDS011;63820;65.654;21.944;2023-05-18T08:25:40;0.73;;;0.20;;
12675;SDS011;63820;65.654;21.944;2023-05-18T08:28:24;0.40;;;0.20;;
12675;SDS011;63820;65.654;21.944;2023-05-18T08:31:10;0.27;;;0.27;;
12675;SDS011;63820;65.654;21.944;2023-05-18T08:33:55;0.40;;;0.30;;
12675;SDS011;63820;65.654;21.944;2023-05-18T08:36:38;0.20;;;0.20;;
12675;SDS011;63820;65.654;21.944;2023-05-18T08:39:24;0.20;;;0.20;;
12675;SDS011;63820;65.654;21.944;2023-05-18T08:47:59;0.53;;;0.30;;
12675;SDS011;63820;65.654;21.944;2023-05-18T08:50:44;0.10;;;0.10;;
12675;SDS011;63820;65.654;21.944;2023-05-18T08:53:32;0.20;;;0.20;;
12675;SDS011;63820;65.654;21.944;2023-05-18T08:56:17;0.20;;;0.20;;
12675;SDS011;63820;65.654;21.944;2023-05-18T08:59:05;0.47;;;0.30;;
12675;SDS011;63820;65.654;21.944;2023-05-18T09:01:51;0.17;;;0.17;;
12675;SDS011;63820;65.654;21.944;2023-05-18T09:04:37;0.30;;;0.30;;
12675;SDS011;63820;65.654;21.944;2023-05-18T09:07:23;0.20;;;0.20;;
12675;SDS011;63820;65.654;21.944;2023-05-18T09:10:11;1.43;;;0.30;;
12675;SDS011;63820;65.654;21.944;2023-05-18T09:12:56;0.20;;;0.20;;
12675;SDS011;63820;65.654;21.944;2023-05-18T09:15:41;0.23;;;0.20;;
12675;SDS011;63820;65.654;21.944;2023-05-18T09:18:25;0.10;;;0.10;;
12675;SDS011;63820;65.654;21.944;2023-05-18T09:21:10;0.30;;;0.30;;
12675;SDS011;63820;65.654;21.944;2023-05-18T09:23:55;0.23;;;0.20;;
12675;SDS011;63820;65.654;21.944;2023-05-18T09:26:39;1.27;;;0.30;;
12675;SDS011;63820;65.654;21.944;2023-05-18T09:29:23;0.40;;;0.40;;
12675;SDS011;63820;65.654;21.944;2023-05-18T09:32:09;0.17;;;0.17;;
12675;SDS011;63820;65.654;21.944;2023-05-18T09:34:54;0.93;;;0.20;;
12675;SDS011;63820;65.654;21.944;2023-05-18T09:37:42;0.20;;;0.20;;
12675;SDS011;63820;65.654;21.944;2023-05-18T09:40:27;0.20;;;0.17;;
12675;SDS011;63820;65.654;21.944;2023-05-18T09:43:12;0.10;;;0.10;;
12675;SDS011;63820;65.654;21.944;2023-05-18T09:45:56;0.50;;;0.20;;
12675;SDS011;63820;65.654;21.944;2023-05-18T09:48:49;1.57;;;0.40;;
12675;SDS011;63820;65.654;21.944;2023-05-18T09:51:36;1.00;;;0.37;;
12675;SDS011;63820;65.654;21.944;2023-05-18T09:54:21;1.23;;;0.30;;
12675;SDS011;63820;65.654;21.944;2023-05-18T09:57:06;0.83;;;0.17;;
12675;SDS011;63820;65.654;21.944;2023-05-18T10:00:03;0.10;;;0.10;;
12675;SDS011;63820;65.654;21.944;2023-05-18T10:02:53;0.30;;;0.20;;
12675;SDS011;63820;65.654;21.944;2023-05-18T10:05:37;0.80;;;0.30;;
12675;SDS011;63820;65.654;21.944;2023-05-18T10:08:24;0.50;;;0.20;;
12675;SDS011;63820;65.654;21.944;2023-05-18T10:11:09;0.37;;;0.20;;
12675;SDS011;63820;65.654;21.944;2023-05-18T10:13:53;0.33;;;0.20;;
12675;SDS011;63820;65.654;21.944;2023-05-18T10:16:40;0.60;;;0.28;;
12675;SDS011;63820;65.654;21.944;2023-05-18T10:19:26;0.73;;;0.28;;
12675;SDS011;63820;65.654;21.944;2023-05-18T10:22:10;1.02;;;0.20;;
12675;SDS011;63820;65.654;21.944;2023-05-18T10:25:05;0.88;;;0.40;;
12675;SDS011;63820;65.654;21.944;2023-05-18T10:27:59;0.45;;;0.38;;
12675;SDS011;63820;65.654;21.944;2023-05-18T10:30:44;0.30;;;0.20;;
12675;SDS011;63820;65.654;21.944;2023-05-18T10:33:30;0.38;;;0.22;;
12675;SDS011;63820;65.654;21.944;2023-05-18T10:36:14;0.50;;;0.20;;
12675;SDS011;63820;65.654;21.944;2023-05-18T10:39:00;0.98;;;0.30;;
12675;SDS011;63820;65.654;21.944;2023-05-18T10:41:45;0.30;;;0.20;;
12675;SDS011;63820;65.654;21.944;2023-05-18T10:44:30;0.30;;;0.20;;
12675;SDS011;63820;65.654;21.944;2023-05-18T10:47:15;1.38;;;0.20;;
12675;SDS011;63820;65.654;21.944;2023-05-18T10:50:01;0.52;;;0.50;;
12675;SDS011;63820;65.654;21.944;2023-05-18T10:52:47;0.20;;;0.20;;
12675;SDS011;63820;65.654;21.944;2023-05-18T10:55:34;0.57;;;0.28;;
12675;SDS011;63820;65.654;21.944;2023-05-18T10:58:19;2.60;;;0.40;;
12675;SDS011;63820;65.654;21.944;2023-05-18T11:01:07;0.30;;;0.20;;
12675;SDS011;63820;65.654;21.944;2023-05-18T11:03:53;0.35;;;0.22;;
12675;SDS011;63820;65.654;21.944;2023-05-18T11:06:37;0.60;;;0.30;;
12675;SDS011;63820;65.654;21.944;2023-05-18T11:09:23;0.30;;;0.10;;
12675;SDS011;63820;65.654;21.944;2023-05-18T11:12:13;1.20;;;0.25;;
12675;SDS011;63820;65.654;21.944;2023-05-18T11:14:59;0.20;;;0.20;;
12675;SDS011;63820;65.654;21.944;2023-05-18T11:17:43;0.97;;;0.20;;
12675;SDS011;63820;65.654;21.944;2023-05-18T11:20:28;0.50;;;0.20;;
12675;SDS011;63820;65.654;21.944;2023-05-18T11:23:12;0.53;;;0.27;;
12675;SDS011;63820;65.654;21.944;2023-05-18T11:26:03;0.63;;;0.30;;
12675;SDS011;63820;65.654;21.944;2023-05-18T11:28:47;0.37;;;0.30;;
12675;SDS011;63820;65.654;21.944;2023-05-18T11:31:45;0.30;;;0.30;;
12675;SDS011;63820;65.654;21.944;2023-05-18T11:43:27;0.40;;;0.40;;
12675;SDS011;63820;65.654;21.944;2023-05-18T11:46:16;0.40;;;0.40;;
12675;SDS011;63820;65.654;21.944;2023-05-18T11:49:07;1.20;;;0.70;;
12675;SDS011;63820;65.654;21.944;2023-05-18T11:54:40;1.30;;;0.73;;
12675;SDS011;63820;65.654;21.944;2023-05-18T12:00:17;0.57;;;0.40;;
12675;SDS011;63820;65.654;21.944;2023-05-18T12:03:03;1.03;;;0.30;;
12675;SDS011;63820;65.654;21.944;2023-05-18T12:05:49;0.33;;;0.20;;
12675;SDS011;63820;65.654;21.944;2023-05-18T12:08:34;0.30;;;0.30;;
12675;SDS011;63820;65.654;21.944;2023-05-18T12:11:19;0.60;;;0.47;;
12675;SDS011;63820;65.654;21.944;2023-05-18T12:14:04;0.80;;;0.50;;
12675;SDS011;63820;65.654;21.944;2023-05-18T12:16:49;1.50;;;0.30;;
12675;SDS011;63820;65.654;21.944;2023-05-18T12:19:37;1.57;;;0.60;;
12675;SDS011;63820;65.654;21.944;2023-05-18T12:22:25;0.67;;;0.40;;
12675;SDS011;63820;65.654;21.944;2023-05-18T12:25:09;0.50;;;0.30;;
12675;SDS011;63820;65.654;21.944;2023-05-18T12:27:54;1.43;;;0.40;;
12675;SDS011;63820;65.654;21.944;2023-05-18T12:30:39;0.40;;;0.23;;
12675;SDS011;63820;65.654;21.944;2023-05-18T12:33:26;0.30;;;0.30;;
12675;SDS011;63820;65.654;21.944;2023-05-18T12:36:11;0.50;;;0.47;;
12675;SDS011;63820;65.654;21.944;2023-05-18T12:38:56;1.90;;;0.57;;
12675;SDS011;63820;65.654;21.944;2023-05-18T12:41:40;0.83;;;0.33;;
12675;SDS011;63820;65.654;21.944;2023-05-18T12:44:24;0.60;;;0.30;;
12675;SDS011;63820;65.654;21.944;2023-05-18T12:47:09;0.67;;;0.40;;
12675;SDS011;63820;65.654;21.944;2023-05-18T12:49:56;0.40;;;0.40;;
12675;SDS011;63820;65.654;21.944;2023-05-18T12:52:45;0.20;;;0.20;;
12675;SDS011;63820;65.654;21.944;2023-05-18T12:55:31;0.80;;;0.30;;
12675;SDS011;63820;65.654;21.944;2023-05-18T12:58:15;0.97;;;0.47;;
12675;SDS011;63820;65.654;21.944;2023-05-18T13:01:07;0.60;;;0.40;;
12675;SDS011;63820;65.654;21.944;2023-05-18T13:03:56;1.30;;;0.47;;
12675;SDS011;63820;65.654;21.944;2023-05-18T13:06:41;0.87;;;0.60;;
12675;SDS011;63820;65.654;21.944;2023-05-18T13:09:26;2.13;;;0.57;;
12675;SDS011;63820;65.654;21.944;2023-05-18T13:12:10;0.77;;;0.40;;
12675;SDS011;63820;65.654;21.944;2023-05-18T13:14:55;0.67;;;0.40;;
12675;SDS011;63820;65.654;21.944;2023-05-18T13:17:46;0.43;;;0.30;;
12675;SDS011;63820;65.654;21.944;2023-05-18T13:20:42;0.93;;;0.47;;
12675;SDS011;63820;65.654;21.944;2023-05-18T13:23:31;1.07;;;0.47;;
12675;SDS011;63820;65.654;21.944;2023-05-18T13:26:15;1.13;;;0.40;;
12675;SDS011;63820;65.654;21.944;2023-05-18T13:29:01;0.90;;;0.40;;
12675;SDS011;63820;65.654;21.944;2023-05-18T13:31:45;1.13;;;0.40;;
12675;SDS011;63820;65.654;21.944;2023-05-18T13:34:29;1.43;;;0.40;;
12675;SDS011;63820;65.654;21.944;2023-05-18T13:37:13;0.63;;;0.50;;
12675;SDS011;63820;65.654;21.944;2023-05-18T13:39:57;0.43;;;0.30;;
12675;SDS011;63820;65.654;21.944;2023-05-18T13:42:42;1.23;;;0.40;;
12675;SDS011;63820;65.654;21.944;2023-05-18T13:45:27;0.80;;;0.40;;
12675;SDS011;63820;65.654;21.944;2023-05-18T13:48:12;1.00;;;0.50;;
12675;SDS011;63820;65.654;21.944;2023-05-18T13:50:57;0.63;;;0.40;;
12675;SDS011;63820;65.654;21.944;2023-05-18T13:53:40;1.10;;;0.50;;
12675;SDS011;63820;65.654;21.944;2023-05-18T13:56:24;0.50;;;0.30;;
12675;SDS011;63820;65.654;21.944;2023-05-18T13:59:10;0.47;;;0.47;;
12675;SDS011;63820;65.654;21.944;2023-05-18T14:01:54;0.50;;;0.50;;
12675;SDS011;63820;65.654;21.944;2023-05-18T14:04:38;0.77;;;0.60;;
12675;SDS011;63820;65.654;21.944;2023-05-18T14:07:22;1.97;;;0.47;;
12675;SDS011;63820;65.654;21.944;2023-05-18T14:10:07;0.73;;;0.50;;
12675;SDS011;63820;65.654;21.944;2023-05-18T14:12:53;0.60;;;0.40;;
12675;SDS011;63820;65.654;21.944;2023-05-18T14:15:37;0.80;;;0.50;;
12675;SDS011;63820;65.654;21.944;2023-05-18T14:18:21;0.87;;;0.57;;
12675;SDS011;63820;65.654;21.944;2023-05-18T14:21:05;0.97;;;0.40;;
12675;SDS011;63820;65.654;21.944;2023-05-18T14:23:49;1.10;;;0.50;;
12675;SDS011;63820;65.654;21.944;2023-05-18T14:26:34;0.60;;;0.60;;
12675;SDS011;63820;65.654;21.944;2023-05-18T14:29:19;0.53;;;0.50;;
12675;SDS011;63820;65.654;21.944;2023-05-18T14:32:03;1.00;;;0.50;;
12675;SDS011;63820;65.654;21.944;2023-05-18T14:34:48;0.73;;;0.60;;
12675;SDS011;63820;65.654;21.944;2023-05-18T14:37:34;0.80;;;0.60;;
12675;SDS011;63820;65.654;21.944;2023-05-18T14:40:18;0.67;;;0.40;;
12675;SDS011;63820;65.654;21.944;2023-05-18T14:43:02;0.90;;;0.50;;
12675;SDS011;63820;65.654;21.944;2023-05-18T14:45:46;0.60;;;0.57;;
12675;SDS011;63820;65.654;21.944;2023-05-18T14:48:31;1.50;;;0.70;;
12675;SDS011;63820;65.654;21.944;2023-05-18T14:51:15;0.60;;;0.40;;
12675;SDS011;63820;65.654;21.944;2023-05-18T14:54:00;0.60;;;0.40;;
12675;SDS011;63820;65.654;21.944;2023-05-18T14:56:44;1.63;;;0.40;;
12675;SDS011;63820;65.654;21.944;2023-05-18T14:59:29;0.90;;;0.50;;
12675;SDS011;63820;65.654;21.944;2023-05-18T15:02:13;1.03;;;0.43;;
12675;SDS011;63820;65.654;21.944;2023-05-18T15:04:57;1.47;;;0.70;;
12675;SDS011;63820;65.654;21.944;2023-05-18T15:07:41;0.67;;;0.50;;
12675;SDS011;63820;65.654;21.944;2023-05-18T15:10:25;0.83;;;0.50;;
12675;SDS011;63820;65.654;21.944;2023-05-18T15:13:09;0.90;;;0.50;;
12675;SDS011;63820;65.654;21.944;2023-05-18T15:15:54;0.80;;;0.60;;
12675;SDS011;63820;65.654;21.944;2023-05-18T15:18:38;1.77;;;0.60;;
12675;SDS011;63820;65.654;21.944;2023-05-18T15:21:22;0.50;;;0.50;;
12675;SDS011;63820;65.654;21.944;2023-05-18T15:24:06;1.03;;;0.53;;
12675;SDS011;63820;65.654;21.944;2023-05-18T15:26:50;1.20;;;0.60;;
12675;SDS011;63820;65.654;21.944;2023-05-18T15:29:35;0.83;;;0.40;;
12675;SDS011;63820;65.654;21.944;2023-05-18T15:32:19;0.63;;;0.43;;
12675;SDS011;63820;65.654;21.944;2023-05-18T15:35:03;0.60;;;0.50;;
12675;SDS011;63820;65.654;21.944;2023-05-18T15:37:48;0.50;;;0.47;;
12675;SDS011;63820;65.654;21.944;2023-05-18T15:40:33;1.17;;;0.60;;
12675;SDS011;63820;65.654;21.944;2023-05-18T15:43:17;0.47;;;0.43;;
12675;SDS011;63820;65.654;21.944;2023-05-18T15:46:02;2.47;;;0.50;;
12675;SDS011;63820;65.654;21.944;2023-05-18T15:48:47;0.87;;;0.40;;
12675;SDS011;63820;65.654;21.944;2023-05-18T15:51:31;0.93;;;0.50;;
12675;SDS011;63820;65.654;21.944;2023-05-18T15:54:15;0.60;;;0.50;;
12675;SDS011;63820;65.654;21.944;2023-05-18T15:57:00;0.80;;;0.60;;
12675;SDS011;63820;65.654;21.944;2023-05-18T15:59:45;0.40;;;0.40;;
12675;SDS011;63820;65.654;21.944;2023-05-18T16:02:29;1.10;;;0.60;;
12675;SDS011;63820;65.654;21.944;2023-05-18T16:05:13;1.20;;;0.57;;
12675;SDS011;63820;65.654;21.944;2023-05-18T16:07:57;0.70;;;0.63;;
12675;SDS011;63820;65.654;21.944;2023-05-18T16:10:42;1.50;;;0.70;;
12675;SDS011;63820;65.654;21.944;2023-05-18T16:13:26;1.33;;;0.70;;
12675;SDS011;63820;65.654;21.944;2023-05-18T16:16:10;0.73;;;0.47;;
12675;SDS011;63820;65.654;21.944;2023-05-18T16:18:57;0.90;;;0.60;;
12675;SDS011;63820;65.654;21.944;2023-05-18T16:21:43;1.27;;;0.50;;
12675;SDS011;63820;65.654;21.944;2023-05-18T16:24:27;0.50;;;0.50;;
12675;SDS011;63820;65.654;21.944;2023-05-18T16:27:11;1.00;;;0.60;;
12675;SDS011;63820;65.654;21.944;2023-05-18T16:29:55;0.77;;;0.50;;
12675;SDS011;63820;65.654;21.944;2023-05-18T16:32:39;0.70;;;0.60;;
12675;SDS011;63820;65.654;21.944;2023-05-18T16:35:25;0.70;;;0.60;;
12675;SDS011;63820;65.654;21.944;2023-05-18T16:38:11;0.63;;;0.63;;
12675;SDS011;63820;65.654;21.944;2023-05-18T16:40:56;0.70;;;0.70;;
12675;SDS011;63820;65.654;21.944;2023-05-18T16:43:40;0.70;;;0.67;;
12675;SDS011;63820;65.654;21.944;2023-05-18T16:46:24;0.90;;;0.60;;
12675;SDS011;63820;65.654;21.944;2023-05-18T16:49:08;0.53;;;0.53;;
12675;SDS011;63820;65.654;21.944;2023-05-18T16:51:53;0.87;;;0.43;;